createdAt,value
2023-03-31T00:00:53.765Z,101499.84
2023-03-31T00:01:58.541Z,101502.00
2023-03-31T00:03:03.895Z,101508.44
2023-03-31T00:04:09.370Z,101491.50
2023-03-31T00:05:18.741Z,101496.28
2023-03-31T00:06:23.490Z,101487.94
2023-03-31T00:07:27.797Z,101488.50
2023-03-31T00:08:36.120Z,101494.41
2023-03-31T00:09:41.570Z,101491.88
2023-03-31T00:10:48.653Z,101482.22
2023-03-31T00:11:52.617Z,101486.00
2023-03-31T00:12:56.716Z,101489.72
2023-03-31T00:14:00.436Z,101494.31
2023-03-31T00:15:04.145Z,101483.47
2023-03-31T00:16:11.259Z,101487.00
2023-03-31T00:17:15.666Z,101482.22
2023-03-31T00:18:19.374Z,101480.28
2023-03-31T00:19:23.313Z,101479.44
2023-03-31T00:20:27.504Z,101484.66
2023-03-31T00:21:34.491Z,101479.22
2023-03-31T00:22:39.646Z,101479.63
2023-03-31T00:23:43.341Z,101475.09
2023-03-31T00:24:47.551Z,101480.34
2023-03-31T00:25:51.177Z,101475.78
2023-03-31T00:26:54.673Z,101474.94
2023-03-31T00:27:58.651Z,101467.81
2023-03-31T00:29:02.585Z,101473.53
2023-03-31T00:30:06.716Z,101478.59
2023-03-31T00:31:10.618Z,101473.34
2023-03-31T00:32:15.249Z,101483.81
2023-03-31T00:33:19.329Z,101479.22
2023-03-31T00:34:23.521Z,101482.63
2023-03-31T00:35:27.584Z,101482.03
2023-03-31T00:36:32.165Z,101486.28
2023-03-31T00:37:36.005Z,101486.91
2023-03-31T00:38:40.109Z,101486.06
2023-03-31T00:39:44.298Z,101486.28
2023-03-31T00:40:47.991Z,101483.56
2023-03-31T00:41:51.725Z,101488.59
2023-03-31T00:42:55.738Z,101483.19
2023-03-31T00:44:25.109Z,101489.44
2023-03-31T00:45:32.138Z,101483.19
2023-03-31T00:46:47.350Z,101489.91
2023-03-31T00:48:04.691Z,101484.28
2023-03-31T00:49:12.808Z,101489.06
2023-03-31T00:50:19.795Z,101482.81
2023-03-31T00:51:23.984Z,101483.19
2023-03-31T00:52:38.135Z,101479.44
2023-03-31T00:53:41.717Z,101466.53
2023-03-31T00:54:46.460Z,101481.13
2023-03-31T00:55:52.163Z,101481.47
2023-03-31T00:56:58.972Z,101487.13
2023-03-31T00:58:05.160Z,101494.59
2023-03-31T00:59:10.238Z,101496.84
2023-03-31T01:00:17.894Z,101490.94
2023-03-31T01:01:25.148Z,101490.09
2023-03-31T01:02:29.505Z,101490.94
2023-03-31T01:03:33.997Z,101486.72
2023-03-31T01:04:41.423Z,101485.88
2023-03-31T01:05:49.366Z,101479.63
2023-03-31T01:07:27.940Z,101470.81
2023-03-31T01:08:32.061Z,101483.75
2023-03-31T01:09:36.232Z,101479.50
2023-03-31T01:10:42.957Z,101477.19
2023-03-31T01:11:48.075Z,101479.06
2023-03-31T01:12:54.627Z,101475.31
2023-03-31T01:13:58.612Z,101466.13
2023-03-31T01:15:02.382Z,101471.94
2023-03-31T01:16:06.405Z,101479.41
2023-03-31T01:17:10.342Z,101476.69
2023-03-31T01:18:14.875Z,101484.81
2023-03-31T01:19:25.785Z,101478.38
2023-03-31T01:20:57.064Z,101488.53
2023-03-31T01:22:24.865Z,101489.22
2023-03-31T01:23:31.300Z,101488.53
2023-03-31T01:24:40.035Z,101487.81
2023-03-31T01:26:08.731Z,101499.91
2023-03-31T01:27:22.764Z,101498.75
2023-03-31T01:28:44.877Z,101494.72
2023-03-31T01:30:07.881Z,101508.44
2023-03-31T01:31:11.552Z,101500.16
2023-03-31T01:32:28.855Z,101499.84
2023-03-31T01:33:44.212Z,101498.81
2023-03-31T01:35:09.300Z,101498.16
2023-03-31T01:36:37.250Z,101502.56
2023-03-31T01:38:36.507Z,101500.50
2023-03-31T01:40:05.637Z,101507.44
2023-03-31T01:41:51.164Z,101505.75
2023-03-31T01:42:57.786Z,101501.50
2023-03-31T01:44:19.129Z,101498.16
2023-03-31T01:45:50.637Z,101497.31
2023-03-31T01:47:12.038Z,101492.06
2023-03-31T01:48:19.000Z,101488.69
2023-03-31T01:50:01.288Z,101495.41
2023-03-31T01:51:10.933Z,101487.09
2023-03-31T01:52:29.668Z,101490.19
2023-03-31T01:53:35.301Z,101490.19
2023-03-31T01:54:41.715Z,101483.91
2023-03-31T01:56:03.913Z,101478.94
2023-03-31T01:57:16.142Z,101474.56
2023-03-31T01:58:22.628Z,101474.84
2023-03-31T01:59:29.514Z,101477.03
2023-03-31T02:00:34.901Z,101477.66
2023-03-31T02:01:39.804Z,101481.22
2023-03-31T02:03:17.976Z,101477.31
2023-03-31T02:04:30.509Z,101476.47
2023-03-31T02:05:39.037Z,101477.31
2023-03-31T02:06:47.205Z,101474.94
2023-03-31T02:08:11.671Z,101471.41
2023-03-31T02:09:18.151Z,101472.91
2023-03-31T02:10:22.642Z,101470.03
2023-03-31T02:11:26.940Z,101462.06
2023-03-31T02:12:31.950Z,101469.53
2023-03-31T02:13:36.622Z,101464.28
2023-03-31T02:14:45.544Z,101461.97
2023-03-31T02:15:52.031Z,101462.34
2023-03-31T02:16:59.299Z,101464.22
2023-03-31T02:18:07.120Z,101471.50
2023-03-31T02:19:11.723Z,101460.66
2023-03-31T02:20:16.063Z,101456.25
2023-03-31T02:21:19.652Z,101455.22
2023-03-31T02:22:23.313Z,101451.66
2023-03-31T02:23:30.252Z,101454.00
2023-03-31T02:24:33.891Z,101453.53
2023-03-31T02:25:40.173Z,101446.59
2023-03-31T02:27:08.319Z,101455.56
2023-03-31T02:28:14.580Z,101451.66
2023-03-31T02:29:22.715Z,101444.38
2023-03-31T02:30:29.949Z,101447.72
2023-03-31T02:31:53.801Z,101444.00
2023-03-31T02:32:59.028Z,101435.69
2023-03-31T02:34:03.961Z,101428.13
2023-03-31T02:35:10.216Z,101429.81
2023-03-31T02:36:14.336Z,101431.66
2023-03-31T02:37:18.390Z,101427.44
2023-03-31T02:38:22.537Z,101422.69
2023-03-31T02:39:34.828Z,101425.03
2023-03-31T02:40:38.837Z,101424.00
2023-03-31T02:41:43.523Z,101423.63
2023-03-31T02:42:47.282Z,101419.25
2023-03-31T02:43:51.315Z,101424.00
2023-03-31T02:44:55.730Z,101417.38
2023-03-31T02:45:59.934Z,101414.34
2023-03-31T02:47:08.065Z,101416.88
2023-03-31T02:48:32.980Z,101406.03
2023-03-31T02:49:36.855Z,101415.19
2023-03-31T02:51:12.245Z,101418.56
2023-03-31T02:52:39.068Z,101409.03
2023-03-31T02:53:48.588Z,101411.56
2023-03-31T02:54:59.514Z,101411.56
2023-03-31T02:56:25.749Z,101414.94
2023-03-31T02:58:06.073Z,101414.94
2023-03-31T02:59:15.776Z,101423.25
2023-03-31T03:01:03.931Z,101419.53
2023-03-31T03:02:19.900Z,101417.44
2023-03-31T03:03:41.800Z,101419.88
2023-03-31T03:05:09.437Z,101413.81
2023-03-31T03:06:30.901Z,101419.88
2023-03-31T03:07:56.510Z,101416.16
2023-03-31T03:09:05.424Z,101413.25
2023-03-31T03:10:33.613Z,101420.16
2023-03-31T03:12:19.765Z,101414.09
2023-03-31T03:13:45.568Z,101413.44
2023-03-31T03:16:42.235Z,101406.03
2023-03-31T03:17:46.877Z,101407.91
2023-03-31T03:19:00.345Z,101400.63
2023-03-31T03:20:08.878Z,101397.56
2023-03-31T03:21:12.944Z,101389.41
2023-03-31T03:22:16.594Z,101388.00
2023-03-31T03:23:20.223Z,101390.44
2023-03-31T03:24:23.896Z,101379.59
2023-03-31T03:25:27.811Z,101386.88
2023-03-31T03:26:36.125Z,101384.00
2023-03-31T03:27:40.374Z,101382.31
2023-03-31T03:28:44.550Z,101381.81
2023-03-31T03:29:48.646Z,101381.81
2023-03-31T03:30:52.953Z,101379.31
2023-03-31T03:31:56.715Z,101380.69
2023-03-31T03:33:00.442Z,101373.06
2023-03-31T03:34:04.662Z,101377.63
2023-03-31T03:35:08.705Z,101374.25
2023-03-31T03:36:12.797Z,101383.22
2023-03-31T03:37:16.939Z,101374.25
2023-03-31T03:38:20.968Z,101380.34
2023-03-31T03:39:25.121Z,101381.19
2023-03-31T03:40:28.871Z,101383.06
2023-03-31T03:41:34.309Z,101384.75
2023-03-31T03:42:39.130Z,101386.78
2023-03-31T03:43:42.733Z,101388.47
2023-03-31T03:44:46.285Z,101388.28
2023-03-31T03:45:50.918Z,101383.91
2023-03-31T03:46:54.952Z,101375.94
2023-03-31T03:47:59.004Z,101384.75
2023-03-31T03:49:03.257Z,101387.44
2023-03-31T03:50:07.752Z,101384.75
2023-03-31T03:51:11.310Z,101385.75
2023-03-31T03:52:14.862Z,101389.31
2023-03-31T03:53:18.814Z,101391.00
2023-03-31T03:54:22.770Z,101392.88
2023-03-31T03:55:26.584Z,101386.59
2023-03-31T03:56:30.670Z,101385.09
2023-03-31T03:57:34.722Z,101398.09
2023-03-31T03:58:38.701Z,101393.50
2023-03-31T03:59:42.769Z,101395.19
2023-03-31T04:00:47.188Z,101395.19
2023-03-31T04:01:50.873Z,101394.19
2023-03-31T04:02:55.106Z,101396.88
2023-03-31T04:03:59.264Z,101393.16
2023-03-31T04:05:03.023Z,101393.34
2023-03-31T04:06:07.073Z,101389.78
2023-03-31T04:07:10.809Z,101393.50
2023-03-31T04:08:14.785Z,101403.03
2023-03-31T04:09:18.634Z,101391.84
2023-03-31T04:10:22.614Z,101384.06
2023-03-31T04:11:26.910Z,101383.06
2023-03-31T04:12:30.990Z,101387.44
2023-03-31T04:13:34.994Z,101381.38
2023-03-31T04:14:38.579Z,101372.56
2023-03-31T04:15:42.978Z,101377.97
2023-03-31T04:16:47.436Z,101369.84
2023-03-31T04:17:55.716Z,101369.66
2023-03-31T04:19:00.381Z,101379.31
2023-03-31T04:20:06.563Z,101379.31
2023-03-31T04:21:12.993Z,101378.47
2023-03-31T04:22:21.245Z,101383.22
2023-03-31T04:23:27.596Z,101383.06
2023-03-31T04:24:34.117Z,101377.63
2023-03-31T04:25:39.658Z,101378.66
2023-03-31T04:26:46.214Z,101383.41
2023-03-31T04:27:55.617Z,101373.41
2023-03-31T04:29:02.805Z,101385.94
2023-03-31T04:30:09.936Z,101388.81
2023-03-31T04:31:17.572Z,101393.91
2023-03-31T04:32:22.303Z,101391.00
2023-03-31T04:33:26.233Z,101393.50
2023-03-31T04:34:39.276Z,101393.06
2023-03-31T04:35:53.423Z,101403.44
2023-03-31T04:36:57.029Z,101399.66
2023-03-31T04:38:01.137Z,101393.44
2023-03-31T04:39:05.246Z,101397.63
2023-03-31T04:40:10.404Z,101388.28
2023-03-31T04:41:15.295Z,101394.34
2023-03-31T04:42:19.416Z,101389.13
2023-03-31T04:43:23.372Z,101393.50
2023-03-31T04:44:27.846Z,101389.94
2023-03-31T04:45:31.864Z,101392.03
2023-03-31T04:46:36.311Z,101391.00
2023-03-31T04:47:40.153Z,101395.59
2023-03-31T04:48:44.255Z,101401.34
2023-03-31T04:49:48.314Z,101410.50
2023-03-31T04:50:52.177Z,101402.19
2023-03-31T04:51:56.280Z,101408.47
2023-03-31T04:52:59.992Z,101415.19
2023-03-31T04:54:04.021Z,101407.81
2023-03-31T04:55:08.516Z,101408.66
2023-03-31T04:56:12.460Z,101410.16
2023-03-31T04:57:16.306Z,101410.16
2023-03-31T04:58:20.323Z,101408.13
2023-03-31T04:59:24.333Z,101407.44
2023-03-31T05:00:29.910Z,101405.09
2023-03-31T05:01:36.968Z,101399.66
2023-03-31T05:02:40.755Z,101405.75
2023-03-31T05:03:45.068Z,101396.44
2023-03-31T05:04:49.111Z,101414.19
2023-03-31T05:05:52.897Z,101402.50
2023-03-31T05:06:57.154Z,101410.81
2023-03-31T05:08:01.241Z,101408.13
2023-03-31T05:09:04.999Z,101407.06
2023-03-31T05:10:09.375Z,101416.88
2023-03-31T05:11:13.062Z,101403.91
2023-03-31T05:12:16.793Z,101416.44
2023-03-31T05:13:20.414Z,101420.63
2023-03-31T05:14:24.440Z,101420.25
2023-03-31T05:15:28.688Z,101425.31
2023-03-31T05:16:32.873Z,101412.78
2023-03-31T05:17:37.514Z,101418.84
2023-03-31T05:18:42.212Z,101424.28
2023-03-31T05:19:46.487Z,101424.94
2023-03-31T05:20:50.075Z,101431.00
2023-03-31T05:21:54.101Z,101425.41
2023-03-31T05:22:58.272Z,101423.53
2023-03-31T05:24:02.300Z,101419.13
2023-03-31T05:25:08.173Z,101419.53
2023-03-31T05:26:12.588Z,101424.00
2023-03-31T05:27:17.094Z,101422.31
2023-03-31T05:28:20.736Z,101424.56
2023-03-31T05:29:25.338Z,101424.75
2023-03-31T05:30:29.803Z,101424.91
2023-03-31T05:31:34.197Z,101423.44
2023-03-31T05:32:38.442Z,101424.28
2023-03-31T05:33:42.563Z,101430.53
2023-03-31T05:34:46.898Z,101422.41
2023-03-31T05:35:50.672Z,101429.69
2023-03-31T05:36:54.530Z,101429.19
2023-03-31T05:37:58.488Z,101427.16
2023-03-31T05:39:02.333Z,101428.84
2023-03-31T05:40:09.249Z,101431.91
2023-03-31T05:41:13.373Z,101424.34
2023-03-31T05:42:17.506Z,101423.13
2023-03-31T05:43:21.353Z,101430.72
2023-03-31T05:44:24.844Z,101431.38
2023-03-31T05:45:28.839Z,101425.13
2023-03-31T05:46:32.723Z,101423.78
2023-03-31T05:47:36.291Z,101422.97
2023-03-31T05:48:40.008Z,101413.59
2023-03-31T05:49:43.947Z,101420.53
2023-03-31T05:50:48.113Z,101419.31
2023-03-31T05:51:52.844Z,101432.88
2023-03-31T05:52:56.851Z,101433.88
2023-03-31T05:54:01.021Z,101428.47
2023-03-31T05:55:05.789Z,101429.81
2023-03-31T05:56:09.697Z,101434.38
2023-03-31T05:57:13.964Z,101425.59
2023-03-31T05:58:18.016Z,101421.47
2023-03-31T05:59:22.330Z,101434.00
2023-03-31T06:00:26.240Z,101419.59
2023-03-31T06:01:30.564Z,101425.03
2023-03-31T06:02:34.591Z,101435.69
2023-03-31T06:03:42.206Z,101432.13
2023-03-31T06:04:46.113Z,101434.84
2023-03-31T06:05:50.393Z,101428.47
2023-03-31T06:06:55.106Z,101418.66
2023-03-31T06:07:58.778Z,101425.13
2023-03-31T06:09:02.814Z,101427.84
2023-03-31T06:10:08.946Z,101430.72
2023-03-31T06:11:14.166Z,101428.00
2023-03-31T06:12:18.113Z,101420.53
2023-03-31T06:13:22.255Z,101432.59
2023-03-31T06:14:26.076Z,101427.16
2023-03-31T06:15:29.602Z,101435.56
2023-03-31T06:16:33.690Z,101436.88
2023-03-31T06:17:38.613Z,101439.41
2023-03-31T06:18:42.732Z,101437.72
2023-03-31T06:19:46.902Z,101442.97
2023-03-31T06:20:51.000Z,101448.41
2023-03-31T06:21:55.015Z,101439.59
2023-03-31T06:22:59.146Z,101452.81
2023-03-31T06:24:02.794Z,101443.66
2023-03-31T06:25:07.006Z,101447.00
2023-03-31T06:26:14.325Z,101452.25
2023-03-31T06:27:18.302Z,101450.72
2023-03-31T06:28:22.459Z,101448.22
2023-03-31T06:29:26.719Z,101447.72
2023-03-31T06:30:30.750Z,101451.97
2023-03-31T06:31:34.691Z,101453.81
2023-03-31T06:32:38.382Z,101450.09
2023-03-31T06:33:42.722Z,101456.16
2023-03-31T06:34:46.643Z,101455.34
2023-03-31T06:35:50.536Z,101458.88
2023-03-31T06:36:54.627Z,101457.84
2023-03-31T06:37:58.706Z,101456.16
2023-03-31T06:39:02.875Z,101451.13
2023-03-31T06:40:07.089Z,101448.41
2023-03-31T06:41:13.261Z,101441.28
2023-03-31T06:42:17.365Z,101453.16
2023-03-31T06:43:23.254Z,101444.72
2023-03-31T06:44:27.065Z,101450.16
2023-03-31T06:45:30.941Z,101449.81
2023-03-31T06:46:34.904Z,101465.22
2023-03-31T06:47:39.157Z,101451.50
2023-03-31T06:48:43.376Z,101461.97
2023-03-31T06:49:47.041Z,101462.81
2023-03-31T06:50:50.753Z,101467.00
2023-03-31T06:51:54.808Z,101468.69
2023-03-31T06:52:59.506Z,101465.97
2023-03-31T06:54:03.019Z,101466.66
2023-03-31T06:55:07.073Z,101468.69
2023-03-31T06:56:11.197Z,101476.47
2023-03-31T06:57:15.412Z,101474.59
2023-03-31T06:58:19.164Z,101470.03
2023-03-31T06:59:22.775Z,101473.38
2023-03-31T07:00:28.172Z,101474.88
2023-03-31T07:01:32.538Z,101483.50
2023-03-31T07:02:37.720Z,101481.16
2023-03-31T07:03:42.258Z,101480.78
2023-03-31T07:04:46.420Z,101485.81
2023-03-31T07:05:53.809Z,101489.59
2023-03-31T07:06:59.289Z,101491.09
2023-03-31T07:08:03.287Z,101492.63
2023-03-31T07:09:07.358Z,101491.38
2023-03-31T07:10:11.428Z,101494.09
2023-03-31T07:11:15.725Z,101495.44
2023-03-31T07:12:19.823Z,101486.44
2023-03-31T07:13:23.622Z,101495.91
2023-03-31T07:14:27.675Z,101491.78
2023-03-31T07:15:31.418Z,101487.00
2023-03-31T07:16:35.626Z,101481.19
2023-03-31T07:17:43.056Z,101488.50
2023-03-31T07:18:47.650Z,101484.94
2023-03-31T07:19:51.441Z,101486.81
2023-03-31T07:20:55.087Z,101495.16
2023-03-31T07:21:59.267Z,101496.47
2023-03-31T07:23:05.692Z,101501.81
2023-03-31T07:24:09.790Z,101507.31
2023-03-31T07:25:15.555Z,101512.84
2023-03-31T07:26:19.745Z,101500.38
2023-03-31T07:27:26.062Z,101501.50
2023-03-31T07:28:30.985Z,101507.69
2023-03-31T07:29:34.934Z,101503.34
2023-03-31T07:30:39.119Z,101507.41
2023-03-31T07:31:43.081Z,101504.78
2023-03-31T07:32:51.114Z,101506.91
2023-03-31T07:33:55.658Z,101504.38
2023-03-31T07:34:59.459Z,101495.13
2023-03-31T07:36:12.437Z,101493.44
2023-03-31T07:37:17.835Z,101496.72
2023-03-31T07:38:21.875Z,101501.88
2023-03-31T07:39:25.569Z,101497.88
2023-03-31T07:40:30.161Z,101500.38
2023-03-31T07:41:34.340Z,101499.56
2023-03-31T07:42:38.460Z,101502.06
2023-03-31T07:43:42.543Z,101506.63
2023-03-31T07:44:46.276Z,101502.44
2023-03-31T07:45:50.454Z,101512.91
2023-03-31T07:46:54.716Z,101507.59
2023-03-31T07:47:58.833Z,101510.78
2023-03-31T07:49:04.281Z,101510.31
2023-03-31T07:50:09.012Z,101519.09
2023-03-31T07:51:13.282Z,101519.00
2023-03-31T07:52:18.376Z,101525.75
2023-03-31T07:53:22.268Z,101511.97
2023-03-31T07:54:26.708Z,101512.97
2023-03-31T07:55:30.783Z,101525.69
2023-03-31T07:56:34.964Z,101522.88
2023-03-31T07:57:39.397Z,101531.50
2023-03-31T07:58:43.481Z,101521.81
2023-03-31T07:59:47.781Z,101539.38
2023-03-31T08:00:51.473Z,101529.81
2023-03-31T08:01:55.665Z,101533.69
2023-03-31T08:03:00.078Z,101536.16
2023-03-31T08:04:04.932Z,101535.31
2023-03-31T08:05:09.425Z,101529.44
2023-03-31T08:06:13.412Z,101532.50
2023-03-31T08:07:18.140Z,101532.78
2023-03-31T08:08:22.345Z,101528.09
2023-03-31T08:09:26.611Z,101522.66
2023-03-31T08:10:30.759Z,101523.22
2023-03-31T08:11:34.547Z,101518.66
2023-03-31T08:12:38.257Z,101509.19
2023-03-31T08:13:42.389Z,101515.28
2023-03-31T08:14:46.065Z,101512.34
2023-03-31T08:15:49.760Z,101513.47
2023-03-31T08:16:56.023Z,101513.41
2023-03-31T08:17:59.662Z,101517.88
2023-03-31T08:19:04.231Z,101520.53
2023-03-31T08:20:09.143Z,101526.44
2023-03-31T08:21:13.499Z,101529.72
2023-03-31T08:22:17.752Z,101529.38
2023-03-31T08:23:28.316Z,101532.13
2023-03-31T08:24:35.569Z,101522.44
2023-03-31T08:25:39.672Z,101528.34
2023-03-31T08:26:44.921Z,101529.66
2023-03-31T08:27:55.642Z,101519.66
2023-03-31T08:29:00.120Z,101528.28
2023-03-31T08:30:05.315Z,101525.66
2023-03-31T08:31:09.503Z,101526.53
2023-03-31T08:32:13.357Z,101530.31
2023-03-31T08:33:17.196Z,101525.06
2023-03-31T08:34:20.842Z,101529.84
2023-03-31T08:35:24.477Z,101530.25
2023-03-31T08:36:28.651Z,101532.72
2023-03-31T08:37:33.407Z,101537.75
2023-03-31T08:38:42.281Z,101529.34
2023-03-31T08:39:46.889Z,101522.31
2023-03-31T08:40:50.678Z,101517.19
2023-03-31T08:42:05.169Z,101520.84
2023-03-31T08:43:19.511Z,101529.00
2023-03-31T08:44:32.270Z,101514.00
2023-03-31T08:45:41.014Z,101518.25
2023-03-31T08:46:44.701Z,101515.25
2023-03-31T08:47:49.470Z,101522.25
2023-03-31T08:48:55.636Z,101522.25
2023-03-31T08:50:00.418Z,101529.28
2023-03-31T08:51:40.581Z,101525.63
2023-03-31T08:53:06.015Z,101531.28
2023-03-31T08:54:38.404Z,101538.81
2023-03-31T08:55:53.887Z,101547.63
2023-03-31T08:56:58.131Z,101540.13
2023-03-31T08:58:14.961Z,101554.63
2023-03-31T08:59:32.356Z,101551.41
2023-03-31T09:00:45.014Z,101552.44
2023-03-31T09:01:57.308Z,101553.09
2023-03-31T09:03:07.552Z,101558.69
2023-03-31T09:04:12.488Z,101549.53
2023-03-31T09:05:31.925Z,101559.81
2023-03-31T09:06:41.365Z,101554.81
2023-03-31T09:07:47.983Z,101562.22
2023-03-31T09:08:51.701Z,101558.38
2023-03-31T09:10:07.232Z,101563.16
2023-03-31T09:11:38.219Z,101563.97
2023-03-31T09:12:45.138Z,101571.78
2023-03-31T09:14:53.822Z,101561.53
2023-03-31T09:16:16.926Z,101569.06
2023-03-31T09:17:34.871Z,101568.94
2023-03-31T09:18:39.679Z,101568.38
2023-03-31T09:19:51.169Z,101563.06
2023-03-31T09:21:03.284Z,101567.97
2023-03-31T09:22:11.325Z,101571.78
2023-03-31T09:23:34.762Z,101570.91
2023-03-31T09:24:53.075Z,101567.38
2023-03-31T09:25:57.265Z,101572.56
2023-03-31T09:27:06.534Z,101577.09
2023-03-31T09:28:20.798Z,101568.56
2023-03-31T09:29:57.932Z,101571.53
2023-03-31T09:31:04.443Z,101569.94
2023-03-31T09:32:21.419Z,101558.16
2023-03-31T09:33:32.975Z,101569.47
2023-03-31T09:34:37.529Z,101569.22
2023-03-31T09:35:41.710Z,101570.38
2023-03-31T09:36:46.305Z,101572.72
2023-03-31T09:37:50.304Z,101573.63
2023-03-31T09:38:54.372Z,101582.69
2023-03-31T09:40:00.397Z,101575.59
2023-03-31T09:41:04.557Z,101583.31
2023-03-31T09:42:08.724Z,101578.72
2023-03-31T09:43:24.118Z,101589.47
2023-03-31T09:44:29.091Z,101599.09
2023-03-31T09:45:34.662Z,101588.25
2023-03-31T09:46:39.400Z,101581.13
2023-03-31T09:47:44.773Z,101593.19
2023-03-31T09:48:56.042Z,101585.78
2023-03-31T09:50:00.273Z,101593.81
2023-03-31T09:51:09.071Z,101588.16
2023-03-31T09:52:31.584Z,101582.88
2023-03-31T09:53:36.468Z,101581.25
2023-03-31T09:54:47.728Z,101580.59
2023-03-31T09:55:54.025Z,101586.16
2023-03-31T09:56:57.912Z,101574.91
2023-03-31T09:58:05.039Z,101578.72
2023-03-31T09:59:18.622Z,101586.16
2023-03-31T10:00:24.120Z,101587.50
2023-03-31T10:01:28.294Z,101590.28
2023-03-31T10:02:38.786Z,101584.00
2023-03-31T10:03:53.005Z,101586.81
2023-03-31T10:04:56.829Z,101585.78
2023-03-31T10:06:00.969Z,101581.06
2023-03-31T10:07:05.657Z,101584.88
2023-03-31T10:08:19.267Z,101580.94
2023-03-31T10:09:27.574Z,101589.28
2023-03-31T10:10:34.627Z,101591.72
2023-03-31T10:11:38.639Z,101593.09
2023-03-31T10:12:43.716Z,101595.91
2023-03-31T10:13:49.394Z,101599.88
2023-03-31T10:14:55.743Z,101590.69
2023-03-31T10:16:13.759Z,101602.34
2023-03-31T10:17:19.250Z,101600.13
2023-03-31T10:18:23.174Z,101606.50
2023-03-31T10:19:28.362Z,101593.97
2023-03-31T10:20:38.268Z,101600.53
2023-03-31T10:21:42.450Z,101597.94
2023-03-31T10:22:47.101Z,101597.84
2023-03-31T10:23:51.832Z,101598.13
2023-03-31T10:24:55.934Z,101606.06
2023-03-31T10:26:00.070Z,101599.41
2023-03-31T10:27:03.749Z,101595.41
2023-03-31T10:28:07.422Z,101599.63
2023-03-31T10:29:14.683Z,101602.38
2023-03-31T10:30:29.845Z,101601.34
2023-03-31T10:31:37.736Z,101609.19
2023-03-31T10:32:43.782Z,101614.63
2023-03-31T10:33:50.007Z,101605.03
2023-03-31T10:34:54.310Z,101601.38
2023-03-31T10:35:59.709Z,101601.31
2023-03-31T10:37:05.000Z,101618.34
2023-03-31T10:38:28.174Z,101615.00
2023-03-31T10:39:33.496Z,101624.41
2023-03-31T10:40:37.892Z,101617.66
2023-03-31T10:41:42.248Z,101616.69
2023-03-31T10:42:47.490Z,101612.97
2023-03-31T10:44:01.892Z,101610.28
2023-03-31T10:45:36.676Z,101612.94
2023-03-31T10:46:43.452Z,101604.66
2023-03-31T10:47:49.522Z,101606.91
2023-03-31T10:48:53.798Z,101606.75
2023-03-31T10:49:58.581Z,101610.25
2023-03-31T10:51:07.322Z,101610.28
2023-03-31T10:52:29.674Z,101610.22
2023-03-31T10:53:54.988Z,101606.66
2023-03-31T10:55:04.383Z,101609.25
2023-03-31T10:56:13.852Z,101603.59
2023-03-31T10:57:18.406Z,101608.41
2023-03-31T10:59:02.335Z,101610.00
2023-03-31T11:00:25.249Z,101609.03
2023-03-31T11:01:39.911Z,101609.03
2023-03-31T11:02:52.546Z,101606.72
2023-03-31T11:04:28.835Z,101611.03
2023-03-31T11:05:55.953Z,101613.22
2023-03-31T11:07:07.679Z,101611.44
2023-03-31T11:08:44.541Z,101614.88
2023-03-31T11:10:01.096Z,101617.97
2023-03-31T11:11:11.698Z,101602.34
2023-03-31T11:12:21.003Z,101610.91
2023-03-31T11:13:42.969Z,101608.75
2023-03-31T11:14:55.269Z,101605.59
2023-03-31T11:16:17.283Z,101600.28
2023-03-31T11:17:26.546Z,101591.94
2023-03-31T11:18:53.276Z,101597.81
2023-03-31T11:20:10.408Z,101592.81
2023-03-31T11:21:32.978Z,101595.06
2023-03-31T11:23:08.762Z,101597.53
2023-03-31T11:24:34.739Z,101585.53
2023-03-31T11:25:58.815Z,101590.56
2023-03-31T11:27:27.229Z,101598.63
2023-03-31T11:29:02.749Z,101593.81
2023-03-31T11:30:18.608Z,101588.38
2023-03-31T11:31:28.892Z,101588.72
2023-03-31T11:32:58.264Z,101591.38
2023-03-31T11:34:10.969Z,101593.34
2023-03-31T11:35:18.994Z,101588.41
2023-03-31T11:36:32.256Z,101588.69
2023-03-31T11:37:42.172Z,101576.19
2023-03-31T11:39:00.863Z,101587.06
2023-03-31T11:40:45.735Z,101586.81
2023-03-31T11:41:52.147Z,101585.72
2023-03-31T11:43:19.323Z,101589.84
2023-03-31T11:44:23.817Z,101576.84
2023-03-31T11:45:30.722Z,101569.88
2023-03-31T11:46:40.352Z,101575.16
2023-03-31T11:47:45.314Z,101569.84
2023-03-31T11:49:02.516Z,101574.19
2023-03-31T11:50:12.648Z,101577.31
2023-03-31T11:51:18.013Z,101572.97
2023-03-31T11:52:43.358Z,101580.72
2023-03-31T11:53:47.024Z,101576.84
2023-03-31T11:54:53.110Z,101578.47
2023-03-31T11:55:57.156Z,101566.56
2023-03-31T11:57:03.722Z,101563.47
2023-03-31T11:58:12.261Z,101564.59
2023-03-31T11:59:17.588Z,101562.97
2023-03-31T12:00:28.009Z,101571.00
2023-03-31T12:01:44.604Z,101560.69
2023-03-31T12:02:56.225Z,101572.97
2023-03-31T12:04:07.877Z,101564.03
2023-03-31T12:05:12.357Z,101560.19
2023-03-31T12:06:21.716Z,101561.00
2023-03-31T12:07:32.201Z,101567.97
2023-03-31T12:08:47.797Z,101563.25
2023-03-31T12:10:14.514Z,101552.97
2023-03-31T12:11:21.386Z,101553.22
2023-03-31T12:12:28.696Z,101557.06
2023-03-31T12:13:50.949Z,101554.53
2023-03-31T12:14:56.275Z,101560.66
2023-03-31T12:16:02.411Z,101565.19
2023-03-31T12:17:13.879Z,101557.94
2023-03-31T12:18:22.032Z,101565.16
2023-03-31T12:19:43.587Z,101561.75
2023-03-31T12:20:53.176Z,101559.97
2023-03-31T12:22:00.129Z,101560.31
2023-03-31T12:23:04.514Z,101554.97
2023-03-31T12:24:14.234Z,101559.59
2023-03-31T12:25:24.236Z,101549.03
2023-03-31T12:26:43.056Z,101559.25
2023-03-31T12:27:55.256Z,101550.56
2023-03-31T12:29:01.511Z,101555.31
2023-03-31T12:30:29.922Z,101550.94
2023-03-31T12:31:36.653Z,101563.63
2023-03-31T12:32:44.749Z,101547.22
2023-03-31T12:33:55.144Z,101556.19
2023-03-31T12:35:05.695Z,101552.22
2023-03-31T12:36:33.666Z,101552.47
2023-03-31T12:37:59.715Z,101560.44
2023-03-31T12:39:09.435Z,101546.88
2023-03-31T12:40:40.182Z,101545.19
2023-03-31T12:42:09.534Z,101550.88
2023-03-31T12:43:20.288Z,101549.13
2023-03-31T12:44:29.831Z,101554.75
2023-03-31T12:45:40.295Z,101555.69
2023-03-31T12:47:13.182Z,101557.84
2023-03-31T12:48:34.894Z,101559.69
2023-03-31T12:50:01.808Z,101549.97
2023-03-31T12:51:34.260Z,101553.88
2023-03-31T12:53:00.615Z,101565.06
2023-03-31T12:54:23.766Z,101569.13
2023-03-31T12:55:38.815Z,101559.09
2023-03-31T12:57:01.729Z,101555.47
2023-03-31T12:58:47.280Z,101559.44
2023-03-31T13:00:15.294Z,101560.63
2023-03-31T13:01:25.087Z,101554.72
2023-03-31T13:02:28.877Z,101558.75
2023-03-31T13:04:18.706Z,101556.41
2023-03-31T13:05:40.260Z,101554.56
2023-03-31T13:06:44.211Z,101554.63
2023-03-31T13:07:47.990Z,101550.75
2023-03-31T13:08:52.752Z,101556.28
2023-03-31T13:10:00.563Z,101555.44